createdAt,value
2023-05-17T00:01:56.161Z,17.95
2023-05-17T00:04:23.171Z,17.94
2023-05-17T00:06:50.155Z,17.96
2023-05-17T00:09:17.095Z,17.96
2023-05-17T00:11:45.313Z,17.99
2023-05-17T00:14:12.822Z,18.06
2023-05-17T00:16:39.708Z,18.09
2023-05-17T00:19:07.968Z,18.11
2023-05-17T00:21:35.546Z,18.12
2023-05-17T00:24:02.391Z,18.16
2023-05-17T00:26:29.720Z,18.17
2023-05-17T00:28:56.540Z,18.20
2023-05-17T00:31:23.404Z,18.23
2023-05-17T00:33:50.920Z,18.24
2023-05-17T00:36:17.778Z,18.24
2023-05-17T00:38:44.857Z,18.25
2023-05-17T00:41:12.601Z,18.26
2023-05-17T00:43:39.603Z,18.27
2023-05-17T00:46:06.708Z,18.30
2023-05-17T00:48:36.900Z,18.31
2023-05-17T00:51:03.822Z,18.34
2023-05-17T00:53:31.625Z,18.36
2023-05-17T00:55:58.573Z,18.38
2023-05-17T00:58:26.657Z,18.40
2023-05-17T01:00:53.557Z,18.41
2023-05-17T01:03:22.961Z,18.42
2023-05-17T01:05:51.740Z,18.42
2023-05-17T01:08:18.637Z,18.42
2023-05-17T01:10:58.490Z,18.41
2023-05-17T01:13:33.434Z,18.40
2023-05-17T01:16:07.996Z,18.38
2023-05-17T01:18:39.585Z,18.37
2023-05-17T01:21:16.333Z,18.36
2023-05-17T01:23:54.099Z,18.35
2023-05-17T01:26:50.290Z,18.34
2023-05-17T01:29:17.269Z,18.34
2023-05-17T01:31:44.420Z,18.33
2023-05-17T01:34:11.522Z,18.33
2023-05-17T01:36:42.420Z,18.34
2023-05-17T01:39:09.262Z,18.34
2023-05-17T01:41:42.599Z,18.33
2023-05-17T01:44:26.484Z,18.31
2023-05-17T01:46:58.460Z,18.27
2023-05-17T01:49:30.512Z,18.20
2023-05-17T01:51:58.034Z,18.13
2023-05-17T01:54:30.999Z,18.07
2023-05-17T01:56:58.571Z,18.01
2023-05-17T01:59:25.605Z,17.96
2023-05-17T02:01:55.439Z,17.93
2023-05-17T02:04:22.439Z,17.90
2023-05-17T02:06:49.609Z,17.87
2023-05-17T02:09:17.481Z,17.83
2023-05-17T02:11:44.909Z,17.79
2023-05-17T02:14:11.898Z,17.75
2023-05-17T02:16:41.826Z,17.70
2023-05-17T02:19:08.720Z,17.64
2023-05-17T02:21:35.697Z,17.62
2023-05-17T02:24:03.288Z,17.61
2023-05-17T02:26:31.237Z,17.31
2023-05-17T02:41:12.745Z,17.81
2023-05-17T02:43:39.955Z,18.17
2023-05-17T02:46:07.087Z,18.20
2023-05-17T02:48:34.130Z,18.23
2023-05-17T02:51:01.207Z,18.25
2023-05-17T02:53:28.353Z,18.24
2023-05-17T02:55:58.320Z,18.21
2023-05-17T02:58:26.073Z,18.19
2023-05-17T03:00:53.177Z,18.16
2023-05-17T03:03:26.205Z,18.16
2023-05-17T03:05:53.363Z,18.15
2023-05-17T03:08:22.015Z,18.13
2023-05-17T03:10:49.079Z,18.12
2023-05-17T03:13:16.601Z,18.12
2023-05-17T03:15:43.779Z,18.13
2023-05-17T03:18:11.057Z,18.14
2023-05-17T03:20:40.052Z,18.14
2023-05-17T03:23:07.246Z,18.16
2023-05-17T03:25:38.542Z,18.17
2023-05-17T03:28:06.326Z,18.19
2023-05-17T03:30:33.490Z,18.23
2023-05-17T03:33:00.792Z,18.28
2023-05-17T03:35:28.200Z,18.36
2023-05-17T03:37:56.376Z,18.53
2023-05-17T03:40:24.017Z,18.61
2023-05-17T03:42:52.003Z,18.56
2023-05-17T03:45:19.923Z,18.54
2023-05-17T03:47:47.085Z,18.58
2023-05-17T03:50:14.696Z,18.59
2023-05-17T03:52:43.828Z,18.62
2023-05-17T03:55:10.876Z,18.63
2023-05-17T03:57:38.233Z,18.68
2023-05-17T04:00:12.638Z,18.76
2023-05-17T04:02:42.586Z,18.82
2023-05-17T04:05:09.967Z,18.88
2023-05-17T04:07:37.198Z,18.99
2023-05-17T04:10:04.471Z,19.06
2023-05-17T04:12:31.612Z,19.16
2023-05-17T04:14:59.122Z,19.25
2023-05-17T04:17:26.377Z,19.33
2023-05-17T04:19:53.665Z,19.38
2023-05-17T04:22:21.561Z,19.43
2023-05-17T04:24:49.774Z,19.48
2023-05-17T04:27:17.175Z,19.53
2023-05-17T04:29:44.371Z,19.57
2023-05-17T04:32:11.553Z,19.63
2023-05-17T04:34:38.753Z,19.80
2023-05-17T04:37:06.215Z,19.91
2023-05-17T04:39:34.088Z,19.98
2023-05-17T04:42:01.090Z,19.94
2023-05-17T04:44:28.322Z,19.99
2023-05-17T04:46:55.977Z,20.07
2023-05-17T04:49:25.303Z,20.16
2023-05-17T04:51:52.789Z,20.23
2023-05-17T04:54:20.198Z,20.30
2023-05-17T04:56:47.260Z,20.36
2023-05-17T04:59:18.612Z,20.43
2023-05-17T05:01:46.009Z,20.50
2023-05-17T05:04:13.136Z,20.57
2023-05-17T05:06:42.079Z,20.64
2023-05-17T05:09:09.955Z,20.71
2023-05-17T05:11:37.823Z,20.79
2023-05-17T05:14:05.397Z,20.83
2023-05-17T05:16:32.580Z,20.87
2023-05-17T05:18:59.908Z,20.99
2023-05-17T05:21:27.448Z,21.02
2023-05-17T05:23:55.165Z,21.08
2023-05-17T05:26:22.223Z,21.19
2023-05-17T05:28:49.847Z,21.28
2023-05-17T05:31:17.021Z,21.39
2023-05-17T05:33:50.275Z,21.48
2023-05-17T05:36:17.550Z,21.53
2023-05-17T05:38:44.617Z,21.61
2023-05-17T05:41:11.688Z,21.67
2023-05-17T05:43:41.755Z,21.74
2023-05-17T05:46:08.863Z,21.79
2023-05-17T05:48:39.632Z,21.88
2023-05-17T05:51:07.547Z,21.99
2023-05-17T05:53:36.946Z,22.12
2023-05-17T05:56:04.783Z,22.22
2023-05-17T05:58:32.165Z,22.34
2023-05-17T06:01:00.453Z,22.46
2023-05-17T06:03:27.505Z,22.58
2023-05-17T06:05:55.876Z,22.62
2023-05-17T06:08:22.941Z,22.72
2023-05-17T06:10:50.035Z,22.86
2023-05-17T06:13:17.092Z,23.01
2023-05-17T06:15:44.151Z,23.15
2023-05-17T06:18:11.277Z,23.30
2023-05-17T06:20:38.318Z,23.52
2023-05-17T06:23:06.071Z,23.65
2023-05-17T06:25:33.738Z,23.77
2023-05-17T06:28:03.118Z,23.81
2023-05-17T06:30:31.324Z,23.94
2023-05-17T06:32:58.633Z,24.08
2023-05-17T06:35:26.144Z,24.23
2023-05-17T06:37:53.440Z,24.32
2023-05-17T06:40:20.524Z,24.46
2023-05-17T06:42:47.559Z,24.61
2023-05-17T06:45:14.707Z,24.74
2023-05-17T06:47:41.854Z,24.89
2023-05-17T06:50:09.551Z,25.04
2023-05-17T06:52:36.809Z,25.18
2023-05-17T06:55:04.033Z,25.30
2023-05-17T06:57:31.217Z,25.40
2023-05-17T06:59:59.714Z,25.47
2023-05-17T07:02:26.824Z,25.49
2023-05-17T07:04:53.993Z,25.58
2023-05-17T07:07:21.420Z,25.73
2023-05-17T07:09:48.466Z,25.91
2023-05-17T07:12:15.573Z,26.04
2023-05-17T07:14:42.642Z,26.20
2023-05-17T07:17:11.834Z,26.33
2023-05-17T07:19:39.111Z,26.47
2023-05-17T07:22:06.711Z,26.60
2023-05-17T07:24:36.033Z,26.74
2023-05-17T07:27:03.135Z,26.92
2023-05-17T07:29:30.224Z,27.01
2023-05-17T07:31:57.638Z,27.09
2023-05-17T07:34:24.824Z,27.21
2023-05-17T07:36:51.880Z,27.35
2023-05-17T07:39:20.236Z,27.52
2023-05-17T07:41:47.342Z,27.66
2023-05-17T07:44:14.403Z,27.67
2023-05-17T07:46:41.677Z,27.61
2023-05-17T07:49:08.984Z,27.64
2023-05-17T07:51:36.749Z,27.62
2023-05-17T07:54:06.882Z,27.56
2023-05-17T07:56:34.001Z,27.53
2023-05-17T07:59:01.106Z,27.62
2023-05-17T08:01:28.179Z,27.73
2023-05-17T08:03:55.451Z,27.76
2023-05-17T08:06:22.571Z,27.88
2023-05-17T08:08:49.743Z,27.98
2023-05-17T08:11:17.081Z,28.02
2023-05-17T08:13:44.596Z,28.05
2023-05-17T08:16:14.563Z,28.08
2023-05-17T08:18:43.754Z,28.23
2023-05-17T08:21:11.714Z,28.35
2023-05-17T08:23:39.470Z,28.37
2023-05-17T08:26:06.987Z,28.47
2023-05-17T08:28:34.284Z,28.55
2023-05-17T08:31:01.465Z,28.63
2023-05-17T08:33:28.784Z,28.71
2023-05-17T08:35:58.064Z,28.71
2023-05-17T08:38:25.143Z,28.69
2023-05-17T08:40:55.469Z,28.69
2023-05-17T08:43:24.676Z,28.68
2023-05-17T08:45:53.228Z,28.70
2023-05-17T08:48:20.671Z,28.77
2023-05-17T08:50:48.429Z,28.86
2023-05-17T08:53:15.558Z,28.91
2023-05-17T08:55:45.551Z,28.91
2023-05-17T08:58:12.679Z,28.92
2023-05-17T09:00:39.716Z,28.96
2023-05-17T09:03:07.012Z,29.05
2023-05-17T09:05:34.205Z,29.13
2023-05-17T09:08:01.509Z,29.15
2023-05-17T09:10:31.007Z,29.15
2023-05-17T09:12:58.212Z,29.18
2023-05-17T09:15:27.339Z,29.22
2023-05-17T09:17:54.720Z,29.22
2023-05-17T09:20:26.164Z,29.25
2023-05-17T09:22:53.482Z,29.34
2023-05-17T09:25:21.883Z,29.42
2023-05-17T09:27:48.945Z,29.51
2023-05-17T09:30:16.108Z,29.61
2023-05-17T09:32:46.602Z,29.64
2023-05-17T09:35:14.269Z,29.70
2023-05-17T09:37:43.485Z,29.82
2023-05-17T09:40:10.915Z,29.98
2023-05-17T09:42:39.442Z,30.11
2023-05-17T09:45:07.023Z,30.19
2023-05-17T09:47:37.869Z,30.28
2023-05-17T09:50:06.637Z,30.33
2023-05-17T09:52:35.553Z,30.30
2023-05-17T09:55:02.701Z,30.44
2023-05-17T09:57:38.010Z,30.57
2023-05-17T10:00:13.574Z,30.67
2023-05-17T10:02:45.790Z,30.81
2023-05-17T10:05:13.312Z,30.93
2023-05-17T10:07:40.418Z,31.00
2023-05-17T10:10:08.646Z,31.03
2023-05-17T10:12:35.729Z,31.06
2023-05-17T10:15:02.845Z,31.28
2023-05-17T10:17:30.396Z,31.31
2023-05-17T10:19:58.278Z,31.18
2023-05-17T10:22:25.413Z,31.10
2023-05-17T10:24:52.554Z,31.05
2023-05-17T10:27:19.912Z,30.96
2023-05-17T10:29:49.947Z,31.05
2023-05-17T10:32:17.707Z,31.05
2023-05-17T10:34:47.530Z,31.09
2023-05-17T10:37:18.928Z,31.09
2023-05-17T10:39:47.053Z,31.05
2023-05-17T10:42:15.393Z,30.97
2023-05-17T10:44:44.567Z,30.87
2023-05-17T10:47:13.426Z,30.78
2023-05-17T10:49:42.188Z,30.72
2023-05-17T10:52:13.433Z,30.64
2023-05-17T10:54:44.027Z,30.48
2023-05-17T10:57:20.135Z,30.24
2023-05-17T10:59:56.732Z,30.00
2023-05-17T11:02:24.137Z,29.80
2023-05-17T11:04:56.343Z,29.55
2023-05-17T11:07:32.600Z,29.35
2023-05-17T11:10:12.898Z,29.16
2023-05-17T11:12:48.296Z,28.98
2023-05-17T11:15:16.113Z,28.81
2023-05-17T11:17:57.292Z,28.68
2023-05-17T11:20:24.613Z,28.63
2023-05-17T11:23:02.807Z,28.61
2023-05-17T11:25:33.019Z,28.57
2023-05-17T11:28:00.323Z,28.59
2023-05-17T11:30:29.627Z,28.62
2023-05-17T11:33:11.136Z,28.59
2023-05-17T11:35:49.117Z,28.57
2023-05-17T11:38:24.854Z,28.51
2023-05-17T11:40:56.485Z,28.54
2023-05-17T11:43:25.871Z,28.66
2023-05-17T11:45:58.749Z,28.79
2023-05-17T11:48:26.750Z,28.91
2023-05-17T11:50:57.112Z,29.04
2023-05-17T11:53:28.694Z,29.14
2023-05-17T11:55:56.165Z,29.24
2023-05-17T11:58:26.846Z,29.32
2023-05-17T12:00:55.241Z,29.41
2023-05-17T12:03:23.321Z,29.49
2023-05-17T12:05:52.028Z,29.60
2023-05-17T12:08:20.171Z,29.71
2023-05-17T12:10:52.394Z,29.81
2023-05-17T12:13:19.877Z,29.93
2023-05-17T12:16:08.900Z,29.99
2023-05-17T12:18:42.545Z,30.06
2023-05-17T12:21:10.722Z,30.22
2023-05-17T12:23:43.807Z,30.39
2023-05-17T12:26:18.015Z,30.55
2023-05-17T12:28:56.562Z,30.68
2023-05-17T12:31:27.276Z,30.68
2023-05-17T12:33:54.460Z,30.66
2023-05-17T12:36:21.538Z,30.77
2023-05-17T12:38:48.625Z,30.89
2023-05-17T12:41:16.156Z,31.00
2023-05-17T12:43:44.858Z,31.11
2023-05-17T12:46:19.098Z,31.21
2023-05-17T12:48:47.068Z,31.31
2023-05-17T12:51:15.925Z,31.37
2023-05-17T12:53:53.946Z,31.36
2023-05-17T12:56:27.219Z,31.30
2023-05-17T12:59:29.029Z,31.32
2023-05-17T13:01:57.252Z,31.39
2023-05-17T13:04:34.552Z,31.45
2023-05-17T13:07:02.973Z,31.50
2023-05-17T13:09:33.733Z,31.50
2023-05-17T13:12:02.598Z,31.38
2023-05-17T13:14:45.799Z,31.29
2023-05-17T13:17:24.370Z,31.21
2023-05-17T13:19:52.198Z,31.08
2023-05-17T13:22:19.357Z,30.88
2023-05-17T13:24:46.731Z,30.73
2023-05-17T13:27:13.947Z,30.65
2023-05-17T13:29:43.660Z,30.58
2023-05-17T13:32:12.856Z,30.55
2023-05-17T13:34:40.327Z,30.48
2023-05-17T13:37:11.136Z,30.44
2023-05-17T13:39:39.693Z,30.42
2023-05-17T13:42:08.080Z,30.40
2023-05-17T13:44:35.214Z,30.36
2023-05-17T13:47:02.355Z,30.32
2023-05-17T13:49:29.472Z,30.28
2023-05-17T13:51:57.052Z,30.20
2023-05-17T13:54:24.184Z,30.10
2023-05-17T13:56:51.348Z,30.05
2023-05-17T13:59:18.706Z,29.99
2023-05-17T14:01:46.063Z,29.94
2023-05-17T14:04:13.530Z,29.90
2023-05-17T14:06:42.139Z,29.83
2023-05-17T14:09:09.416Z,29.75
2023-05-17T14:11:36.537Z,29.65
2023-05-17T14:14:04.479Z,29.57
2023-05-17T14:16:31.594Z,29.46
2023-05-17T14:19:01.017Z,29.36
2023-05-17T14:21:30.113Z,29.28
2023-05-17T14:23:57.347Z,29.21
2023-05-17T14:26:24.471Z,29.17
2023-05-17T14:28:52.111Z,29.14
2023-05-17T14:31:19.167Z,29.11
2023-05-17T14:33:47.778Z,29.05
2023-05-17T14:36:14.915Z,29.01
2023-05-17T14:38:42.386Z,28.97
2023-05-17T14:41:09.450Z,29.01
2023-05-17T14:43:36.851Z,29.07
2023-05-17T14:46:04.397Z,29.08
2023-05-17T14:48:34.301Z,29.07
2023-05-17T14:51:03.661Z,29.05
2023-05-17T14:53:30.995Z,29.03
2023-05-17T14:55:59.107Z,29.00
2023-05-17T14:58:26.691Z,28.92
2023-05-17T15:01:06.689Z,28.87
2023-05-17T15:03:34.652Z,28.83
2023-05-17T15:06:05.059Z,28.82
2023-05-17T15:08:34.928Z,28.82
2023-05-17T15:11:02.197Z,28.80
2023-05-17T15:13:30.241Z,28.78
2023-05-17T15:15:57.344Z,28.77
2023-05-17T15:18:24.432Z,28.75
2023-05-17T15:20:51.984Z,28.76
2023-05-17T15:23:19.009Z,28.76
2023-05-17T15:25:46.720Z,28.75
2023-05-17T15:28:14.368Z,28.74
2023-05-17T15:30:42.311Z,28.73
2023-05-17T15:33:10.162Z,28.71
2023-05-17T15:35:41.601Z,28.67
2023-05-17T15:38:08.703Z,28.70
2023-05-17T15:40:35.719Z,28.68
2023-05-17T15:43:02.819Z,28.68
2023-05-17T15:45:30.110Z,28.55
2023-05-17T15:47:57.564Z,28.43
2023-05-17T15:50:24.666Z,28.24
2023-05-17T15:52:51.762Z,28.05
2023-05-17T15:55:20.403Z,27.88
2023-05-17T15:57:48.060Z,27.74
2023-05-17T16:00:15.680Z,27.58
2023-05-17T16:02:42.951Z,27.51
2023-05-17T16:05:10.348Z,27.49
2023-05-17T16:07:37.525Z,27.47
2023-05-17T16:10:05.091Z,27.44
2023-05-17T16:12:32.200Z,27.40
2023-05-17T16:14:59.280Z,27.34
2023-05-17T16:17:26.978Z,27.30
2023-05-17T16:19:54.086Z,27.22
2023-05-17T16:22:21.736Z,27.14
2023-05-17T16:24:52.665Z,27.05
2023-05-17T16:27:20.191Z,26.96
2023-05-17T16:29:47.281Z,26.86
2023-05-17T16:32:14.387Z,26.79
2023-05-17T16:34:41.683Z,26.73
2023-05-17T16:37:08.793Z,26.66
2023-05-17T16:39:35.822Z,26.58
2023-05-17T16:42:02.837Z,26.50
2023-05-17T16:44:29.907Z,26.40
2023-05-17T16:46:57.015Z,26.34
2023-05-17T16:49:24.129Z,26.26
2023-05-17T16:51:52.423Z,26.18
2023-05-17T16:54:19.995Z,26.10
2023-05-17T16:56:47.429Z,26.00
2023-05-17T16:59:16.000Z,25.91
2023-05-17T17:01:43.432Z,25.82
2023-05-17T17:04:10.582Z,25.72
2023-05-17T17:06:38.302Z,25.62
2023-05-17T17:09:08.011Z,25.52
2023-05-17T17:11:35.499Z,25.39
2023-05-17T17:14:04.621Z,25.28
2023-05-17T17:16:32.189Z,25.16
2023-05-17T17:18:59.677Z,25.02
2023-05-17T17:21:26.816Z,24.88
2023-05-17T17:23:53.914Z,24.75
2023-05-17T17:26:22.144Z,24.61
2023-05-17T17:28:49.239Z,24.48
2023-05-17T17:31:18.432Z,24.34
2023-05-17T17:33:45.527Z,24.25
2023-05-17T17:36:12.635Z,24.19
2023-05-17T17:38:39.624Z,24.11
2023-05-17T17:41:06.758Z,24.02
2023-05-17T17:43:33.835Z,23.94
2023-05-17T17:46:01.151Z,23.85
2023-05-17T17:48:28.201Z,23.75
2023-05-17T17:50:55.825Z,23.65
2023-05-17T17:53:23.485Z,23.54
2023-05-17T17:55:50.842Z,23.44
2023-05-17T17:58:17.896Z,23.33
2023-05-17T18:00:44.907Z,23.23
2023-05-17T18:03:13.282Z,23.10
2023-05-17T18:05:40.573Z,22.96
2023-05-17T18:08:08.100Z,22.80
2023-05-17T18:10:36.024Z,22.67
2023-05-17T18:13:03.194Z,22.56
2023-05-17T18:15:30.292Z,22.47
2023-05-17T18:17:57.633Z,22.40
2023-05-17T18:20:26.664Z,22.33
2023-05-17T18:22:53.765Z,22.26
2023-05-17T18:25:21.557Z,22.25
2023-05-17T18:27:49.568Z,22.10
2023-05-17T18:30:18.594Z,22.03
2023-05-17T18:32:49.173Z,21.95
2023-05-17T18:35:16.463Z,21.87
2023-05-17T18:37:43.650Z,21.77
2023-05-17T18:40:11.415Z,21.78
2023-05-17T18:42:38.575Z,21.73
2023-05-17T18:45:07.923Z,21.63
2023-05-17T18:47:35.051Z,21.51
2023-05-17T18:50:02.393Z,21.43
2023-05-17T18:52:29.552Z,21.36
2023-05-17T18:54:56.683Z,21.30
2023-05-17T18:57:23.822Z,21.23
2023-05-17T18:59:51.017Z,21.15
2023-05-17T19:02:18.180Z,21.09
2023-05-17T19:04:45.282Z,21.03
2023-05-17T19:07:12.399Z,20.97
2023-05-17T19:09:39.524Z,20.90
2023-05-17T19:12:07.027Z,20.72
2023-05-17T19:14:34.248Z,20.63
2023-05-17T19:17:03.379Z,20.56
2023-05-17T19:19:31.481Z,20.48
2023-05-17T19:22:00.730Z,20.41
2023-05-17T19:24:28.042Z,20.35
2023-05-17T19:26:55.102Z,20.29
2023-05-17T19:29:22.487Z,20.21
2023-05-17T19:31:49.672Z,20.12
2023-05-17T19:34:16.754Z,20.04
2023-05-17T19:36:43.829Z,19.97
2023-05-17T19:39:11.111Z,19.90
2023-05-17T19:41:38.245Z,19.83
2023-05-17T19:44:06.418Z,19.79
2023-05-17T19:46:33.822Z,19.73
2023-05-17T19:49:01.175Z,19.67
2023-05-17T19:51:28.472Z,19.61
2023-05-17T19:53:55.671Z,19.55
2023-05-17T19:56:25.973Z,19.50
2023-05-17T19:58:54.204Z,19.42
2023-05-17T20:01:24.293Z,19.36
2023-05-17T20:03:52.069Z,19.34
2023-05-17T20:06:19.267Z,19.22
2023-05-17T20:08:47.210Z,19.15
2023-05-17T20:11:14.356Z,19.11
2023-05-17T20:13:41.419Z,19.08
2023-05-17T20:16:15.060Z,19.06
2023-05-17T20:18:42.761Z,19.04
2023-05-17T20:21:11.651Z,19.09
2023-05-17T20:23:38.784Z,18.99
2023-05-17T20:26:07.235Z,18.94
2023-05-17T20:28:34.418Z,18.91
2023-05-17T20:31:01.605Z,18.86
2023-05-17T20:33:28.715Z,18.80
2023-05-17T20:35:55.931Z,18.74
2023-05-17T20:38:23.072Z,18.70
2023-05-17T20:40:52.133Z,18.65
2023-05-17T20:43:20.237Z,18.61
2023-05-17T20:45:50.155Z,18.56
2023-05-17T20:48:17.279Z,18.52
2023-05-17T20:50:45.200Z,18.47
2023-05-17T20:53:12.302Z,18.44
2023-05-17T20:55:39.556Z,18.40
2023-05-17T20:58:06.645Z,18.35
2023-05-17T21:00:33.730Z,18.32
2023-05-17T21:03:00.897Z,18.28
2023-05-17T21:05:28.650Z,18.25
2023-05-17T21:07:56.928Z,18.22
2023-05-17T21:10:24.507Z,18.21
2023-05-17T21:12:52.682Z,18.19
2023-05-17T21:15:19.962Z,18.19
2023-05-17T21:17:47.214Z,18.19
2023-05-17T21:20:14.503Z,18.19
2023-05-17T21:22:41.585Z,18.19
2023-05-17T21:25:09.077Z,18.18
2023-05-17T21:27:36.160Z,18.17
2023-05-17T21:30:05.071Z,18.15
2023-05-17T21:32:32.278Z,18.13
2023-05-17T21:34:59.843Z,18.10
2023-05-17T21:37:29.115Z,18.06
2023-05-17T21:39:56.508Z,18.02
2023-05-17T21:42:23.560Z,17.97
2023-05-17T21:44:51.270Z,17.96
2023-05-17T21:47:18.265Z,17.88
2023-05-17T21:49:45.318Z,17.82
2023-05-17T21:52:12.650Z,17.77
2023-05-17T21:54:41.542Z,17.74
2023-05-17T21:57:08.581Z,17.70
2023-05-17T21:59:35.693Z,17.68
2023-05-17T22:02:02.809Z,17.65
2023-05-17T22:04:29.885Z,17.67
2023-05-17T22:06:57.037Z,17.55
2023-05-17T22:09:24.165Z,17.49
2023-05-17T22:11:51.292Z,17.44
2023-05-17T22:14:18.323Z,17.40
2023-05-17T22:16:45.387Z,17.36
2023-05-17T22:19:12.492Z,17.32
2023-05-17T22:21:39.511Z,17.29
2023-05-17T22:24:07.033Z,17.25
2023-05-17T22:26:34.128Z,17.22
2023-05-17T22:29:01.426Z,17.19
2023-05-17T22:31:28.673Z,17.16
2023-05-17T22:33:55.782Z,17.13
2023-05-17T22:36:25.132Z,17.08
2023-05-17T22:38:52.373Z,17.05
2023-05-17T22:41:19.902Z,17.02
2023-05-17T22:43:46.986Z,17.01
2023-05-17T22:46:16.218Z,17.00
2023-05-17T22:48:43.307Z,16.99
2023-05-17T22:51:10.335Z,16.99
2023-05-17T22:53:37.385Z,16.97
2023-05-17T22:56:04.649Z,16.95
2023-05-17T22:58:31.788Z,16.93
2023-05-17T23:00:58.833Z,16.91
2023-05-17T23:03:25.989Z,16.88
2023-05-17T23:06:02.464Z,16.88
2023-05-17T23:08:30.360Z,16.87
2023-05-17T23:10:58.931Z,16.86
2023-05-17T23:13:26.468Z,16.84
2023-05-17T23:15:53.964Z,16.83
2023-05-17T23:18:21.313Z,16.82
2023-05-17T23:20:49.209Z,16.81
2023-05-17T23:23:16.479Z,16.80
2023-05-17T23:25:48.618Z,16.80
2023-05-17T23:28:16.014Z,16.80
2023-05-17T23:30:44.797Z,16.80
2023-05-17T23:33:11.855Z,16.79
2023-05-17T23:35:38.924Z,16.77
2023-05-17T23:38:07.416Z,16.73
2023-05-17T23:40:39.705Z,16.70
2023-05-17T23:43:08.865Z,16.67
2023-05-17T23:45:35.980Z,16.63
2023-05-17T23:48:03.547Z,16.62
2023-05-17T23:50:30.747Z,16.61
2023-05-17T23:52:57.737Z,16.57
2023-05-17T23:55:24.766Z,16.49
2023-05-17T23:57:52.047Z,16.45
